Terminal Aerodrome Forecast
Issued by NWS

Home | Current Version | Previous Version | Text Only | Print | Product List | Glossary On
Versions: 1 2 3 4 5 6 7 8 9 10 11 12 13 14 15 16 17 18
000
FTUS42 KTBW 042354
TAFPIE
TAF
KPIE 042354Z 0500/0524 25006KT P6SM FEW040 SCT250
     FM050200 VRB03KT P6SM FEW025 SCT250
     FM051400 10006KT P6SM SCT025 SCT100
     FM051700 29008KT P6SM SCT035 SCT200=

USA.gov is the U.S. government's official web portal to all federal, state and local government web resources and services.